createdAt,value
2018-04-29T00:02:21.087Z,61.86
2018-04-29T00:04:50.667Z,62.30
2018-04-29T00:07:20.256Z,62.90
2018-04-29T00:09:50.471Z,63.11
2018-04-29T00:12:20.542Z,63.70
2018-04-29T00:14:50.181Z,63.56
2018-04-29T00:17:19.903Z,63.57
2018-04-29T00:19:49.746Z,63.57
2018-04-29T00:22:19.667Z,63.32
2018-04-29T00:24:49.250Z,63.83
2018-04-29T00:27:18.798Z,64.00
2018-04-29T00:29:48.329Z,63.90
2018-04-29T00:32:17.970Z,64.17
2018-04-29T00:34:47.484Z,63.87
2018-04-29T00:37:17.458Z,63.81
2018-04-29T00:39:47.038Z,64.00
2018-04-29T00:42:16.560Z,64.35
2018-04-29T00:44:45.880Z,64.62
2018-04-29T00:47:15.430Z,64.44
2018-04-29T00:49:45.356Z,64.20
2018-04-29T00:52:15.274Z,64.35
2018-04-29T00:54:45.100Z,64.17
2018-04-29T00:57:14.634Z,64.06
2018-04-29T00:59:44.188Z,64.10
2018-04-29T01:02:14.110Z,64.02
2018-04-29T01:04:43.720Z,63.94
2018-04-29T01:07:13.654Z,64.01
2018-04-29T01:09:42.938Z,63.92
2018-04-29T01:12:12.139Z,63.73
2018-04-29T01:14:41.766Z,64.04
2018-04-29T01:17:11.277Z,63.77
2018-04-29T01:19:40.877Z,63.18
2018-04-29T01:22:10.421Z,63.22
2018-04-29T01:24:39.944Z,63.57
2018-04-29T01:27:09.494Z,63.63
2018-04-29T01:29:39.042Z,63.61
2018-04-29T01:32:08.882Z,63.91
2018-04-29T01:34:38.804Z,64.07
2018-04-29T01:37:08.738Z,63.64
2018-04-29T01:39:38.562Z,63.38
2018-04-29T01:42:08.104Z,64.18
2018-04-29T01:44:37.641Z,63.85
2018-04-29T01:47:07.567Z,63.75
2018-04-29T01:49:37.099Z,63.23
2018-04-29T01:52:06.600Z,64.00
2018-04-29T01:54:36.134Z,64.96
2018-04-29T01:57:05.678Z,65.76
2018-04-29T01:59:35.597Z,65.92
2018-04-29T02:02:05.634Z,65.73
2018-04-29T02:04:35.169Z,65.96
2018-04-29T02:07:04.705Z,65.54
2018-04-29T02:09:34.267Z,65.84
2018-04-29T02:12:03.836Z,66.42
2018-04-29T02:14:34.449Z,66.59
2018-04-29T02:17:03.963Z,66.92
2018-04-29T02:19:33.501Z,67.43
2018-04-29T02:22:03.048Z,67.86
2018-04-29T02:24:32.927Z,67.56
2018-04-29T02:27:02.543Z,68.30
2018-04-29T02:29:32.077Z,68.53
2018-04-29T02:32:01.601Z,69.27
2018-04-29T02:34:31.121Z,69.36
2018-04-29T02:37:01.059Z,69.45
2018-04-29T02:39:30.591Z,69.76
2018-04-29T02:42:00.109Z,69.58
2018-04-29T02:44:29.637Z,69.99
2018-04-29T02:46:59.168Z,69.82
2018-04-29T02:49:29.112Z,70.28
2018-04-29T02:51:58.639Z,70.64
2018-04-29T02:54:28.155Z,70.54
2018-04-29T02:56:57.120Z,70.37
2018-04-29T02:59:26.654Z,70.71
2018-04-29T03:01:56.263Z,70.85
2018-04-29T03:04:25.932Z,71.42
2018-04-29T03:06:55.456Z,72.41
2018-04-29T03:10:26.743Z,72.89
2018-04-29T03:12:56.298Z,73.50
2018-04-29T03:15:25.833Z,73.89
2018-04-29T03:17:55.360Z,74.21
2018-04-29T03:20:24.925Z,73.95
2018-04-29T03:22:54.459Z,74.21
2018-04-29T03:25:24.001Z,74.26
2018-04-29T03:27:53.573Z,74.19
2018-04-29T03:30:23.097Z,74.00
2018-04-29T03:32:52.825Z,74.08
2018-04-29T03:35:22.369Z,74.10
2018-04-29T03:37:51.640Z,74.21
2018-04-29T03:40:21.405Z,74.18
2018-04-29T03:42:50.933Z,73.91
2018-04-29T03:45:20.471Z,73.76
2018-04-29T03:47:50.397Z,72.92
2018-04-29T03:50:19.927Z,71.06
2018-04-29T03:52:49.814Z,69.02
2018-04-29T03:55:19.574Z,68.49
2018-04-29T03:58:05.853Z,66.24
2018-04-29T04:00:58.735Z,65.71
2018-04-29T04:03:55.647Z,65.21
2018-04-29T04:06:25.705Z,66.60
2018-04-29T04:08:55.228Z,66.83
2018-04-29T04:11:24.737Z,67.51
2018-04-29T04:13:54.665Z,67.96
2018-04-29T04:16:24.619Z,68.81
2018-04-29T04:18:54.149Z,69.80
2018-04-29T04:21:23.700Z,70.18
2018-04-29T04:23:53.630Z,70.53
2018-04-29T04:26:23.149Z,71.11
2018-04-29T04:28:52.914Z,71.17
2018-04-29T04:31:22.452Z,71.41
2018-04-29T04:33:51.996Z,71.60
2018-04-29T04:36:21.600Z,70.97
2018-04-29T04:38:51.183Z,70.61
2018-04-29T04:41:20.718Z,70.54
2018-04-29T04:43:50.243Z,70.21
2018-04-29T04:46:19.952Z,71.13
2018-04-29T04:48:49.271Z,71.78
2018-04-29T04:51:19.480Z,71.76
2018-04-29T04:53:49.435Z,71.85
2018-04-29T04:56:18.734Z,71.67
2018-04-29T04:58:48.529Z,71.55
2018-04-29T05:01:18.455Z,71.57
2018-04-29T05:03:48.605Z,71.97
2018-04-29T05:06:18.365Z,70.33
2018-04-29T05:08:48.339Z,66.93
2018-04-29T05:11:17.882Z,66.31
2018-04-29T05:13:47.451Z,67.24
2018-04-29T05:16:17.101Z,65.40
2018-04-29T05:18:46.403Z,62.49
2018-04-29T05:21:16.373Z,61.37
2018-04-29T05:23:45.943Z,60.22
2018-04-29T05:26:15.853Z,59.11
2018-04-29T05:28:45.601Z,59.06
2018-04-29T05:31:14.957Z,59.09
2018-04-29T05:33:44.891Z,58.46
2018-04-29T05:36:14.419Z,58.98
2018-04-29T05:38:43.943Z,59.04
2018-04-29T05:41:13.500Z,58.17
2018-04-29T05:43:43.445Z,58.34
2018-04-29T05:46:13.046Z,57.82
2018-04-29T05:48:42.621Z,56.57
2018-04-29T05:51:12.542Z,57.01
2018-04-29T05:53:42.484Z,56.42
2018-04-29T05:56:12.041Z,56.64
2018-04-29T05:58:41.583Z,54.90
2018-04-29T06:01:11.560Z,54.08
2018-04-29T06:03:42.309Z,52.09
2018-04-29T06:06:11.835Z,54.13
2018-04-29T06:08:41.763Z,55.16
2018-04-29T06:11:11.298Z,56.07
2018-04-29T06:13:40.884Z,55.76
2018-04-29T06:16:10.419Z,56.68
2018-04-29T06:18:40.773Z,56.65
2018-04-29T06:21:10.306Z,57.34
2018-04-29T06:23:41.561Z,57.44
2018-04-29T06:26:11.220Z,57.60
2018-04-29T06:28:40.870Z,57.67
2018-04-29T06:31:10.829Z,57.11
2018-04-29T06:33:40.590Z,56.80
2018-04-29T06:36:10.549Z,57.77
2018-04-29T06:38:40.115Z,58.02
2018-04-29T06:41:10.027Z,57.75
2018-04-29T06:43:39.937Z,57.60
2018-04-29T06:46:09.889Z,57.78
2018-04-29T06:48:39.449Z,57.88
2018-04-29T06:51:08.971Z,59.05
2018-04-29T06:53:38.924Z,58.85
2018-04-29T06:56:08.509Z,58.40
2018-04-29T06:58:38.088Z,57.50
2018-04-29T07:01:07.607Z,57.39
2018-04-29T07:03:37.289Z,57.93
2018-04-29T07:06:06.857Z,57.62
2018-04-29T07:08:36.419Z,56.76
2018-04-29T07:11:05.951Z,56.54
2018-04-29T07:13:35.477Z,56.38
2018-04-29T07:16:04.979Z,56.20
2018-04-29T07:18:34.490Z,57.02
2018-04-29T07:21:04.050Z,58.53
2018-04-29T07:23:33.605Z,58.30
2018-04-29T07:26:04.150Z,58.06
2018-04-29T07:28:34.275Z,57.62
2018-04-29T07:31:03.985Z,57.55
2018-04-29T07:33:33.499Z,57.73
2018-04-29T07:36:03.074Z,57.74
2018-04-29T07:38:32.605Z,56.80
2018-04-29T07:41:02.133Z,56.60
2018-04-29T07:43:31.684Z,56.78
2018-04-29T07:46:01.220Z,57.41
2018-04-29T07:48:31.591Z,58.04
2018-04-29T07:51:01.552Z,58.13
2018-04-29T07:53:30.768Z,57.79
2018-04-29T07:56:00.290Z,57.57
2018-04-29T07:58:29.860Z,57.11
2018-04-29T08:00:59.392Z,57.53
2018-04-29T08:03:28.942Z,57.07
2018-04-29T08:05:58.516Z,57.11
2018-04-29T08:08:28.088Z,55.92
2018-04-29T08:10:57.619Z,55.16
2018-04-29T08:13:27.156Z,55.49
2018-04-29T08:15:57.084Z,55.49
2018-04-29T08:18:27.010Z,54.88
2018-04-29T08:20:56.542Z,54.88
2018-04-29T08:23:26.112Z,54.70
2018-04-29T08:25:56.036Z,55.10
2018-04-29T08:28:25.594Z,54.69
2018-04-29T08:30:55.830Z,54.24
2018-04-29T08:33:25.798Z,54.32
2018-04-29T08:35:55.314Z,55.41
2018-04-29T08:38:25.076Z,54.72
2018-04-29T08:40:55.010Z,55.08
2018-04-29T08:43:24.581Z,54.22
2018-04-29T08:45:54.124Z,54.19
2018-04-29T08:48:23.696Z,53.05
2018-04-29T08:50:53.234Z,52.18
2018-04-29T08:53:22.750Z,51.62
2018-04-29T08:55:52.944Z,50.83
2018-04-29T08:58:23.217Z,50.78
2018-04-29T09:00:52.787Z,50.63
2018-04-29T09:03:22.727Z,52.02
2018-04-29T09:05:52.280Z,52.46
2018-04-29T09:08:21.804Z,53.73
2018-04-29T09:10:51.369Z,53.52
2018-04-29T09:13:21.023Z,53.04
2018-04-29T09:15:50.937Z,51.94
2018-04-29T09:18:20.904Z,52.25
2018-04-29T09:20:50.416Z,50.79
2018-04-29T09:23:19.955Z,50.33
2018-04-29T09:25:49.803Z,49.80
2018-04-29T09:28:19.125Z,48.94
2018-04-29T09:30:48.660Z,48.97
2018-04-29T09:33:18.168Z,49.41
2018-04-29T09:35:47.747Z,48.53
2018-04-29T09:38:17.283Z,47.77
2018-04-29T09:40:46.602Z,47.14
2018-04-29T09:43:16.156Z,48.74
2018-04-29T09:45:45.876Z,47.01
2018-04-29T09:48:15.404Z,46.70
2018-04-29T09:50:44.946Z,45.20
2018-04-29T09:53:14.494Z,45.10
2018-04-29T09:55:44.070Z,45.89
2018-04-29T09:58:13.598Z,44.06
2018-04-29T10:00:48.952Z,43.73
2018-04-29T10:03:20.134Z,43.89
2018-04-29T10:05:50.002Z,44.01
2018-04-29T10:08:20.068Z,45.25
2018-04-29T10:10:50.156Z,45.64
2018-04-29T10:13:19.953Z,44.31
2018-04-29T10:15:50.492Z,44.93
2018-04-29T10:18:21.054Z,45.59
2018-04-29T10:20:51.658Z,44.56
2018-04-29T10:23:21.883Z,43.50
2018-04-29T10:25:51.976Z,43.54
2018-04-29T10:28:22.294Z,42.99
2018-04-29T10:30:52.457Z,42.98
2018-04-29T10:33:23.253Z,43.71
2018-04-29T10:35:53.528Z,43.38
2018-04-29T10:38:23.634Z,42.60
2018-04-29T10:40:53.739Z,42.04
2018-04-29T10:43:24.237Z,41.62
2018-04-29T10:45:54.770Z,41.01
2018-04-29T10:48:24.946Z,40.51
2018-04-29T10:50:55.132Z,39.53
2018-04-29T10:53:25.287Z,39.50
2018-04-29T10:55:55.537Z,41.53
2018-04-29T10:58:25.711Z,40.12
2018-04-29T11:00:55.820Z,39.72
2018-04-29T11:03:26.297Z,39.83
2018-04-29T11:05:56.433Z,38.21
2018-04-29T11:08:26.844Z,40.16
2018-04-29T11:10:56.958Z,40.09
2018-04-29T11:13:27.064Z,39.62
2018-04-29T11:15:57.284Z,39.97
2018-04-29T11:18:27.278Z,39.34
2018-04-29T11:20:57.496Z,40.04
2018-04-29T11:23:27.788Z,39.83
2018-04-29T11:25:57.965Z,38.78
2018-04-29T11:28:28.067Z,38.87
2018-04-29T11:30:58.789Z,39.10
2018-04-29T11:33:28.908Z,39.00
2018-04-29T11:35:59.840Z,38.38
2018-04-29T11:38:29.932Z,39.23
2018-04-29T11:41:00.880Z,39.10
2018-04-29T11:43:31.020Z,39.27
2018-04-29T11:46:01.525Z,38.92
2018-04-29T11:48:31.806Z,38.67
2018-04-29T11:51:01.866Z,39.72
2018-04-29T11:53:32.012Z,39.42
2018-04-29T11:56:02.126Z,38.00
2018-04-29T11:58:32.245Z,37.29
2018-04-29T12:01:02.405Z,37.55
2018-04-29T12:03:32.588Z,37.33
2018-04-29T12:06:02.742Z,37.30
2018-04-29T12:08:33.258Z,34.97
2018-04-29T12:11:03.800Z,35.96
2018-04-29T12:13:34.081Z,36.07
2018-04-29T12:16:04.220Z,35.04
2018-04-29T12:18:34.334Z,35.54
2018-04-29T12:21:04.186Z,35.52
2018-04-29T12:23:34.638Z,35.20
2018-04-29T12:26:04.758Z,33.56
2018-04-29T12:28:34.827Z,34.09
2018-04-29T12:31:04.943Z,34.05
2018-04-29T12:33:35.194Z,33.93
2018-04-29T12:36:05.405Z,33.89
2018-04-29T12:38:35.681Z,33.47
2018-04-29T12:41:05.853Z,33.90
2018-04-29T12:43:36.312Z,33.30
2018-04-29T12:46:06.928Z,32.79
2018-04-29T12:48:37.062Z,31.93
2018-04-29T12:51:07.150Z,29.03
2018-04-29T12:53:37.268Z,27.66
2018-04-29T12:56:07.866Z,27.07
2018-04-29T12:58:37.930Z,26.87
2018-04-29T13:01:08.022Z,26.59
2018-04-29T13:03:38.618Z,23.03
2018-04-29T13:06:08.904Z,24.38
2018-04-29T13:08:39.387Z,22.60
2018-04-29T13:11:09.505Z,25.62
2018-04-29T13:13:40.152Z,22.91
2018-04-29T13:16:10.418Z,22.64
2018-04-29T13:18:40.507Z,22.36
2018-04-29T13:21:10.603Z,21.59
2018-04-29T13:23:40.485Z,20.95
2018-04-29T13:26:10.584Z,22.17
2018-04-29T13:28:41.052Z,20.36
2018-04-29T13:31:11.161Z,20.46
2018-04-29T13:33:41.314Z,21.64
2018-04-29T13:36:11.428Z,21.46
2018-04-29T13:38:41.558Z,20.61
2018-04-29T13:41:11.654Z,20.60
2018-04-29T13:43:41.749Z,21.69
2018-04-29T13:46:12.791Z,21.93
2018-04-29T13:48:43.000Z,21.94
2018-04-29T13:51:13.109Z,19.66
2018-04-29T13:53:43.245Z,20.64
2018-04-29T13:56:13.031Z,21.32
2018-04-29T13:58:43.562Z,21.80
2018-04-29T14:01:13.876Z,20.11
2018-04-29T14:03:44.397Z,21.11
2018-04-29T14:06:15.440Z,20.67
2018-04-29T14:08:45.672Z,22.06
2018-04-29T14:11:15.797Z,22.29
2018-04-29T14:13:46.294Z,22.13
2018-04-29T14:16:16.454Z,21.93
2018-04-29T14:18:46.551Z,23.15
2018-04-29T14:21:16.675Z,22.03
2018-04-29T14:23:47.163Z,21.53
2018-04-29T14:26:17.265Z,20.85
2018-04-29T14:28:47.364Z,21.77
2018-04-29T14:31:17.499Z,22.41
2018-04-29T14:33:48.199Z,21.68
2018-04-29T14:36:18.781Z,20.92
2018-04-29T14:38:48.924Z,22.38
2018-04-29T14:41:19.087Z,21.97
2018-04-29T14:43:49.231Z,21.78
2018-04-29T14:46:19.565Z,21.71
2018-04-29T14:48:49.807Z,22.23
2018-04-29T14:51:20.204Z,22.11
2018-04-29T14:53:50.417Z,22.17
2018-04-29T14:56:20.617Z,22.70
2018-04-29T14:58:51.441Z,23.35
2018-04-29T15:01:21.705Z,23.23
2018-04-29T15:03:51.935Z,24.28
2018-04-29T15:06:22.067Z,23.31
2018-04-29T15:08:52.392Z,24.43
2018-04-29T15:11:22.537Z,23.30
2018-04-29T15:13:52.672Z,23.37
2018-04-29T15:16:22.944Z,23.54
2018-04-29T15:18:58.976Z,23.92
2018-04-29T15:21:29.093Z,23.94
2018-04-29T15:23:59.207Z,24.42
2018-04-29T15:26:29.787Z,24.74
2018-04-29T15:29:00.054Z,23.89
2018-04-29T15:31:30.169Z,26.72
2018-04-29T15:34:00.341Z,26.50
2018-04-29T15:36:30.435Z,23.96
2018-04-29T15:39:00.928Z,23.88
2018-04-29T15:41:31.108Z,24.21
2018-04-29T15:44:01.184Z,25.93
2018-04-29T15:46:31.772Z,25.90
2018-04-29T15:49:02.362Z,24.80
2018-04-29T15:51:32.537Z,24.51
2018-04-29T15:54:05.922Z,25.71
2018-04-29T15:56:36.045Z,25.43
2018-04-29T15:59:05.650Z,24.95
2018-04-29T16:01:35.818Z,25.25
2018-04-29T16:04:06.362Z,24.41
2018-04-29T16:06:36.494Z,24.87
2018-04-29T16:09:07.195Z,25.05
2018-04-29T16:11:37.796Z,24.73
2018-04-29T16:14:08.041Z,24.59
2018-04-29T16:16:38.647Z,23.48
2018-04-29T16:19:08.773Z,24.20
2018-04-29T16:21:38.987Z,24.06
2018-04-29T16:24:09.120Z,23.81
2018-04-29T16:26:39.191Z,23.65
2018-04-29T16:29:09.309Z,23.89
2018-04-29T16:31:39.409Z,23.68
2018-04-29T16:34:09.763Z,23.42
2018-04-29T16:36:39.659Z,24.73
2018-04-29T16:39:10.027Z,25.80
2018-04-29T16:41:40.392Z,26.21
2018-04-29T16:44:10.404Z,23.88
2018-04-29T16:46:40.529Z,24.70
2018-04-29T16:49:11.028Z,24.47
2018-04-29T16:51:41.148Z,24.14
2018-04-29T16:54:11.307Z,25.62
2018-04-29T16:56:41.815Z,24.31
2018-04-29T16:59:11.919Z,24.80
2018-04-29T17:01:42.405Z,26.39
2018-04-29T17:04:12.547Z,24.80
2018-04-29T17:06:42.646Z,25.09
2018-04-29T17:09:12.744Z,24.75
2018-04-29T17:11:43.259Z,26.73
2018-04-29T17:14:13.405Z,25.84
2018-04-29T17:16:43.498Z,27.69
2018-04-29T17:19:13.605Z,26.05
2018-04-29T17:21:44.065Z,26.60
2018-04-29T17:24:14.607Z,26.18
2018-04-29T17:26:45.528Z,27.35
2018-04-29T17:29:16.203Z,27.17
2018-04-29T17:31:46.405Z,27.10
2018-04-29T17:34:16.515Z,27.18
2018-04-29T17:36:46.612Z,26.80
2018-04-29T17:39:16.807Z,27.71
2018-04-29T17:41:47.029Z,27.10
2018-04-29T17:44:17.164Z,28.01
2018-04-29T17:46:47.312Z,27.96
2018-04-29T17:49:17.971Z,27.90
2018-04-29T17:51:48.353Z,27.70
2018-04-29T17:54:18.476Z,27.24
2018-04-29T17:56:48.580Z,27.47
2018-04-29T17:59:18.708Z,26.83
2018-04-29T18:01:48.829Z,26.85
2018-04-29T18:04:19.362Z,27.13
2018-04-29T18:06:49.980Z,26.90
2018-04-29T18:09:20.148Z,27.27
2018-04-29T18:11:50.628Z,27.31
2018-04-29T18:14:20.860Z,27.91
2018-04-29T18:16:51.026Z,27.21
2018-04-29T18:22:57.160Z,28.94
2018-04-29T18:25:27.298Z,28.11
2018-04-29T18:27:57.748Z,27.72
2018-04-29T18:30:27.873Z,27.98
2018-04-29T18:32:58.154Z,27.48
2018-04-29T18:35:28.268Z,27.42
2018-04-29T18:37:58.432Z,27.60
2018-04-29T18:40:28.679Z,28.18
2018-04-29T18:42:58.776Z,27.63
2018-04-29T18:45:29.282Z,27.82
2018-04-29T18:47:59.382Z,28.25
2018-04-29T18:50:29.632Z,27.92
2018-04-29T18:53:00.260Z,28.22
2018-04-29T18:55:30.348Z,27.67
2018-04-29T18:58:00.456Z,27.63
2018-04-29T19:00:30.522Z,26.86
2018-04-29T19:03:00.620Z,27.63
2018-04-29T19:05:47.951Z,27.76
2018-04-29T19:08:18.278Z,28.10
2018-04-29T19:10:48.420Z,28.20
2018-04-29T19:13:18.500Z,28.64
2018-04-29T19:15:48.660Z,28.77
2018-04-29T19:18:19.178Z,29.50
2018-04-29T19:20:49.865Z,29.44
2018-04-29T19:23:19.970Z,30.74
2018-04-29T19:39:05.200Z,29.40
2018-04-29T19:41:35.706Z,29.28
2018-04-29T19:44:06.216Z,28.97
2018-04-29T19:46:36.346Z,29.17
2018-04-29T19:49:06.564Z,28.99
2018-04-29T19:51:37.479Z,28.76
2018-04-29T19:54:07.572Z,28.97
2018-04-29T19:56:38.084Z,28.96
2018-04-29T19:59:08.620Z,28.88
2018-04-29T20:02:26.554Z,28.46
2018-04-29T20:04:56.743Z,28.81
2018-04-29T20:07:26.866Z,30.37
2018-04-29T20:09:57.622Z,29.40
2018-04-29T20:12:27.729Z,30.23
2018-04-29T20:14:58.712Z,29.47
2018-04-29T20:17:28.849Z,29.19
2018-04-29T20:19:59.596Z,29.90
2018-04-29T20:22:29.738Z,28.49
2018-04-29T20:24:59.985Z,28.84
2018-04-29T20:27:30.132Z,30.00
2018-04-29T20:33:36.811Z,28.87
2018-04-29T20:36:07.072Z,28.86
2018-04-29T20:38:36.866Z,29.11
2018-04-29T20:41:07.221Z,29.51
2018-04-29T20:43:37.338Z,29.68
2018-04-29T20:46:07.504Z,29.97
2018-04-29T20:48:37.042Z,30.17
2018-04-29T20:51:07.017Z,30.77
2018-04-29T20:53:37.119Z,30.99
2018-04-29T20:56:07.193Z,31.72
2018-04-29T20:58:37.303Z,31.69
2018-04-29T21:01:06.838Z,32.10
2018-04-29T21:03:36.956Z,32.36
2018-04-29T21:06:06.508Z,32.45
2018-04-29T21:08:36.581Z,32.37
2018-04-29T21:11:06.950Z,32.40
2018-04-29T21:13:36.507Z,32.45
2018-04-29T21:16:06.243Z,32.13
2018-04-29T21:18:35.816Z,32.11
2018-04-29T21:21:05.378Z,32.19
2018-04-29T21:23:34.991Z,32.33
2018-04-29T21:26:04.215Z,32.44
2018-04-29T21:28:33.729Z,32.13
2018-04-29T21:31:03.307Z,32.10
2018-04-29T21:33:32.834Z,32.17
2018-04-29T21:36:02.349Z,31.99
2018-04-29T21:38:31.870Z,32.04
2018-04-29T21:41:01.447Z,32.33
2018-04-29T21:43:30.975Z,32.44
2018-04-29T21:46:00.499Z,32.63
2018-04-29T21:48:30.095Z,32.82
2018-04-29T21:50:59.637Z,33.01
2018-04-29T21:53:29.529Z,33.01
2018-04-29T21:55:59.034Z,33.09
2018-04-29T21:58:28.969Z,33.27
2018-04-29T22:00:59.573Z,33.43
2018-04-29T22:03:29.129Z,33.50
2018-04-29T22:05:58.658Z,33.37
2018-04-29T22:08:28.182Z,33.54
2018-04-29T22:10:57.757Z,33.83
2018-04-29T22:13:27.524Z,34.08
2018-04-29T22:15:57.053Z,35.49
2018-04-29T22:18:27.023Z,40.98
2018-04-29T22:20:56.625Z,47.74
2018-04-29T22:23:26.157Z,51.63
2018-04-29T22:25:55.691Z,53.26
2018-04-29T22:28:25.654Z,54.20
2018-04-29T22:30:54.935Z,55.00
2018-04-29T22:33:25.213Z,56.60
2018-04-29T22:35:55.141Z,56.87
2018-04-29T22:38:25.069Z,57.44
2018-04-29T22:40:54.608Z,57.80
2018-04-29T22:43:24.188Z,58.36
2018-04-29T22:45:53.859Z,58.61
2018-04-29T22:48:23.408Z,58.80
2018-04-29T22:50:52.955Z,59.34
2018-04-29T22:53:22.517Z,59.19
2018-04-29T22:55:52.044Z,59.62
2018-04-29T22:58:21.689Z,59.92
2018-04-29T23:00:51.289Z,60.35
2018-04-29T23:03:20.859Z,61.08
2018-04-29T23:05:50.485Z,61.74
2018-04-29T23:08:20.457Z,62.95
2018-04-29T23:10:50.377Z,62.94
2018-04-29T23:13:19.933Z,63.62
2018-04-29T23:15:49.887Z,63.58
2018-04-29T23:18:19.921Z,64.52
2018-04-29T23:20:49.571Z,64.40
2018-04-29T23:23:19.095Z,64.06
2018-04-29T23:25:48.616Z,63.30
2018-04-29T23:28:18.157Z,62.97
2018-04-29T23:30:47.705Z,63.04
2018-04-29T23:36:53.166Z,62.08
2018-04-29T23:39:22.951Z,61.10
2018-04-29T23:41:52.953Z,60.42
2018-04-29T23:44:22.199Z,60.56
2018-04-29T23:46:51.737Z,59.21
2018-04-29T23:49:21.771Z,59.17
2018-04-29T23:51:51.328Z,57.66
2018-04-29T23:54:20.613Z,56.88
2018-04-29T23:56:50.271Z,56.32
2018-04-29T23:59:20.252Z,56.56
